sensor_id;sensor_type;location;lat;lon;timestamp;P1;durP1;ratioP1;P2;durP2;ratioP2
75139;SDS011;63714;55.812;37.658;2023-02-11T00:00:48;14.45;;;5.82;;
75139;SDS011;63714;55.812;37.658;2023-02-11T00:03:14;11.07;;;5.07;;
75139;SDS011;63714;55.812;37.658;2023-02-11T00:05:40;12.05;;;4.88;;
75139;SDS011;63714;55.812;37.658;2023-02-11T00:08:06;10.43;;;5.30;;
75139;SDS011;63714;55.812;37.658;2023-02-11T00:10:31;12.88;;;5.10;;
75139;SDS011;63714;55.812;37.658;2023-02-11T00:12:57;13.57;;;4.72;;
75139;SDS011;63714;55.812;37.658;2023-02-11T00:15:22;12.65;;;5.13;;
75139;SDS011;63714;55.812;37.658;2023-02-11T00:17:48;12.32;;;5.43;;
75139;SDS011;63714;55.812;37.658;2023-02-11T00:20:14;13.88;;;6.03;;
75139;SDS011;63714;55.812;37.658;2023-02-11T00:22:39;13.10;;;5.32;;
75139;SDS011;63714;55.812;37.658;2023-02-11T00:25:05;11.50;;;5.40;;
75139;SDS011;63714;55.812;37.658;2023-02-11T00:27:31;12.35;;;4.88;;
75139;SDS011;63714;55.812;37.658;2023-02-11T00:29:56;11.48;;;4.10;;
75139;SDS011;63714;55.812;37.658;2023-02-11T00:32:24;10.00;;;4.63;;
75139;SDS011;63714;55.812;37.658;2023-02-11T00:34:51;12.65;;;4.75;;
75139;SDS011;63714;55.812;37.658;2023-02-11T00:37:19;12.80;;;5.30;;
75139;SDS011;63714;55.812;37.658;2023-02-11T00:39:45;13.10;;;5.70;;
75139;SDS011;63714;55.812;37.658;2023-02-11T00:42:12;9.50;;;4.32;;
75139;SDS011;63714;55.812;37.658;2023-02-11T00:44:39;10.02;;;4.30;;
75139;SDS011;63714;55.812;37.658;2023-02-11T00:47:04;16.70;;;5.30;;
75139;SDS011;63714;55.812;37.658;2023-02-11T00:49:30;13.40;;;4.60;;
75139;SDS011;63714;55.812;37.658;2023-02-11T00:51:56;13.20;;;5.22;;
75139;SDS011;63714;55.812;37.658;2023-02-11T00:54:21;11.05;;;4.20;;
75139;SDS011;63714;55.812;37.658;2023-02-11T00:56:47;10.60;;;4.28;;
75139;SDS011;63714;55.812;37.658;2023-02-11T00:59:12;10.52;;;4.72;;
75139;SDS011;63714;55.812;37.658;2023-02-11T01:01:38;11.18;;;4.38;;
75139;SDS011;63714;55.812;37.658;2023-02-11T01:04:04;11.07;;;4.65;;
75139;SDS011;63714;55.812;37.658;2023-02-11T01:06:29;11.60;;;4.40;;
75139;SDS011;63714;55.812;37.658;2023-02-11T01:08:55;12.07;;;3.92;;
75139;SDS011;63714;55.812;37.658;2023-02-11T01:11:21;9.60;;;4.18;;
75139;SDS011;63714;55.812;37.658;2023-02-11T01:13:47;10.10;;;4.35;;
75139;SDS011;63714;55.812;37.658;2023-02-11T01:16:14;11.45;;;5.03;;
75139;SDS011;63714;55.812;37.658;2023-02-11T01:18:40;12.80;;;5.03;;
75139;SDS011;63714;55.812;37.658;2023-02-11T01:21:08;9.63;;;4.70;;
75139;SDS011;63714;55.812;37.658;2023-02-11T01:23:34;10.18;;;4.07;;
75139;SDS011;63714;55.812;37.658;2023-02-11T01:26:00;8.93;;;4.13;;
75139;SDS011;63714;55.812;37.658;2023-02-11T01:28:26;13.68;;;5.03;;
75139;SDS011;63714;55.812;37.658;2023-02-11T01:30:53;9.88;;;3.50;;
75139;SDS011;63714;55.812;37.658;2023-02-11T01:33:19;9.13;;;3.63;;
75139;SDS011;63714;55.812;37.658;2023-02-11T01:35:45;9.50;;;4.18;;
75139;SDS011;63714;55.812;37.658;2023-02-11T01:38:15;9.50;;;4.20;;
75139;SDS011;63714;55.812;37.658;2023-02-11T01:40:47;10.55;;;4.70;;
75139;SDS011;63714;55.812;37.658;2023-02-11T01:43:14;10.20;;;3.50;;
75139;SDS011;63714;55.812;37.658;2023-02-11T01:48:11;11.80;;;3.85;;
75139;SDS011;63714;55.812;37.658;2023-02-11T01:50:39;8.95;;;3.50;;
75139;SDS011;63714;55.812;37.658;2023-02-11T01:53:07;9.07;;;3.20;;
75139;SDS011;63714;55.812;37.658;2023-02-11T01:55:52;8.68;;;3.40;;
75139;SDS011;63714;55.812;37.658;2023-02-11T01:58:39;7.88;;;3.13;;
75139;SDS011;63714;55.812;37.658;2023-02-11T02:01:07;7.13;;;3.15;;
75139;SDS011;63714;55.812;37.658;2023-02-11T02:03:38;9.70;;;3.30;;
75139;SDS011;63714;55.812;37.658;2023-02-11T02:06:14;9.07;;;3.58;;
75139;SDS011;63714;55.812;37.658;2023-02-11T02:08:59;6.15;;;3.40;;
75139;SDS011;63714;55.812;37.658;2023-02-11T02:11:29;5.80;;;3.10;;
75139;SDS011;63714;55.812;37.658;2023-02-11T02:13:55;6.38;;;2.78;;
75139;SDS011;63714;55.812;37.658;2023-02-11T02:16:21;8.02;;;3.67;;
75139;SDS011;63714;55.812;37.658;2023-02-11T02:38:42;5.18;;;2.03;;
75139;SDS011;63714;55.812;37.658;2023-02-11T02:41:15;6.68;;;2.28;;
75139;SDS011;63714;55.812;37.658;2023-02-11T02:43:45;5.35;;;2.15;;
75139;SDS011;63714;55.812;37.658;2023-02-11T02:46:15;7.50;;;2.72;;
75139;SDS011;63714;55.812;37.658;2023-02-11T02:48:47;6.38;;;2.45;;
75139;SDS011;63714;55.812;37.658;2023-02-11T03:04:36;8.32;;;2.58;;
75139;SDS011;63714;55.812;37.658;2023-02-11T03:07:16;5.65;;;2.17;;
75139;SDS011;63714;55.812;37.658;2023-02-11T03:10:31;4.60;;;1.98;;
75139;SDS011;63714;55.812;37.658;2023-02-11T03:12:46;8.00;;;2.55;;
75139;SDS011;63714;55.812;37.658;2023-02-11T03:15:12;5.22;;;2.05;;
75139;SDS011;63714;55.812;37.658;2023-02-11T03:17:41;5.75;;;2.30;;
75139;SDS011;63714;55.812;37.658;2023-02-11T03:20:12;7.10;;;2.38;;
75139;SDS011;63714;55.812;37.658;2023-02-11T03:22:46;6.80;;;2.10;;
75139;SDS011;63714;55.812;37.658;2023-02-11T03:25:17;8.95;;;2.33;;
75139;SDS011;63714;55.812;37.658;2023-02-11T03:27:46;5.13;;;2.10;;
75139;SDS011;63714;55.812;37.658;2023-02-11T03:30:26;5.35;;;1.75;;
75139;SDS011;63714;55.812;37.658;2023-02-11T03:32:58;5.35;;;1.98;;
75139;SDS011;63714;55.812;37.658;2023-02-11T03:38:16;6.57;;;2.08;;
75139;SDS011;63714;55.812;37.658;2023-02-11T03:40:48;3.83;;;1.63;;
75139;SDS011;63714;55.812;37.658;2023-02-11T03:43:16;5.63;;;2.47;;
75139;SDS011;63714;55.812;37.658;2023-02-11T03:45:45;5.57;;;2.10;;
75139;SDS011;63714;55.812;37.658;2023-02-11T03:50:45;4.82;;;1.77;;
75139;SDS011;63714;55.812;37.658;2023-02-11T03:53:13;5.93;;;1.85;;
75139;SDS011;63714;55.812;37.658;2023-02-11T03:55:40;5.72;;;1.95;;
75139;SDS011;63714;55.812;37.658;2023-02-11T03:58:07;6.78;;;2.10;;
75139;SDS011;63714;55.812;37.658;2023-02-11T04:00:35;7.00;;;2.00;;
75139;SDS011;63714;55.812;37.658;2023-02-11T04:03:03;6.50;;;1.95;;
75139;SDS011;63714;55.812;37.658;2023-02-11T04:05:30;4.32;;;1.52;;
75139;SDS011;63714;55.812;37.658;2023-02-11T04:07:56;7.57;;;1.50;;
75139;SDS011;63714;55.812;37.658;2023-02-11T04:10:22;4.13;;;1.63;;
75139;SDS011;63714;55.812;37.658;2023-02-11T04:12:47;6.40;;;1.52;;
75139;SDS011;63714;55.812;37.658;2023-02-11T04:15:13;6.95;;;1.52;;
75139;SDS011;63714;55.812;37.658;2023-02-11T04:17:39;6.57;;;1.75;;
75139;SDS011;63714;55.812;37.658;2023-02-11T04:20:05;6.88;;;1.92;;
75139;SDS011;63714;55.812;37.658;2023-02-11T04:22:32;5.68;;;1.70;;
75139;SDS011;63714;55.812;37.658;2023-02-11T04:24:57;4.78;;;1.65;;
75139;SDS011;63714;55.812;37.658;2023-02-11T04:27:23;3.10;;;1.23;;
75139;SDS011;63714;55.812;37.658;2023-02-11T04:29:49;5.95;;;1.70;;
75139;SDS011;63714;55.812;37.658;2023-02-11T04:32:15;4.07;;;1.50;;
75139;SDS011;63714;55.812;37.658;2023-02-11T04:34:41;6.47;;;1.70;;
75139;SDS011;63714;55.812;37.658;2023-02-11T04:37:06;7.05;;;1.60;;
75139;SDS011;63714;55.812;37.658;2023-02-11T04:39:33;8.00;;;1.75;;
75139;SDS011;63714;55.812;37.658;2023-02-11T04:41:59;5.55;;;1.33;;
75139;SDS011;63714;55.812;37.658;2023-02-11T04:44:24;3.50;;;1.40;;
75139;SDS011;63714;55.812;37.658;2023-02-11T04:46:50;3.10;;;1.20;;
75139;SDS011;63714;55.812;37.658;2023-02-11T04:49:16;6.57;;;1.60;;
75139;SDS011;63714;55.812;37.658;2023-02-11T04:51:42;4.60;;;1.67;;
75139;SDS011;63714;55.812;37.658;2023-02-11T04:54:09;4.68;;;1.77;;
75139;SDS011;63714;55.812;37.658;2023-02-11T04:56:35;5.50;;;1.55;;
75139;SDS011;63714;55.812;37.658;2023-02-11T04:59:01;5.75;;;1.80;;
75139;SDS011;63714;55.812;37.658;2023-02-11T05:01:27;6.30;;;1.98;;
75139;SDS011;63714;55.812;37.658;2023-02-11T05:03:53;6.10;;;1.77;;
75139;SDS011;63714;55.812;37.658;2023-02-11T05:06:19;4.45;;;1.40;;
75139;SDS011;63714;55.812;37.658;2023-02-11T05:08:44;5.00;;;2.10;;
75139;SDS011;63714;55.812;37.658;2023-02-11T05:11:14;6.25;;;1.73;;
75139;SDS011;63714;55.812;37.658;2023-02-11T05:13:41;5.20;;;1.60;;
75139;SDS011;63714;55.812;37.658;2023-02-11T05:16:07;8.20;;;2.00;;
75139;SDS011;63714;55.812;37.658;2023-02-11T05:18:35;3.95;;;1.25;;
75139;SDS011;63714;55.812;37.658;2023-02-11T05:21:09;5.50;;;1.48;;
75139;SDS011;63714;55.812;37.658;2023-02-11T05:23:40;5.28;;;1.83;;
75139;SDS011;63714;55.812;37.658;2023-02-11T05:26:06;3.08;;;1.30;;
75139;SDS011;63714;55.812;37.658;2023-02-11T05:28:33;3.13;;;1.55;;
75139;SDS011;63714;55.812;37.658;2023-02-11T05:30:59;7.90;;;1.95;;
75139;SDS011;63714;55.812;37.658;2023-02-11T05:33:28;4.22;;;1.95;;
75139;SDS011;63714;55.812;37.658;2023-02-11T05:35:57;3.72;;;1.13;;
75139;SDS011;63714;55.812;37.658;2023-02-11T05:38:27;3.80;;;1.38;;
75139;SDS011;63714;55.812;37.658;2023-02-11T05:40:54;6.43;;;1.70;;
75139;SDS011;63714;55.812;37.658;2023-02-11T05:43:20;4.60;;;1.50;;
75139;SDS011;63714;55.812;37.658;2023-02-11T05:45:46;4.65;;;1.42;;
75139;SDS011;63714;55.812;37.658;2023-02-11T05:48:12;5.13;;;1.80;;
75139;SDS011;63714;55.812;37.658;2023-02-11T05:50:37;3.38;;;1.45;;
75139;SDS011;63714;55.812;37.658;2023-02-11T05:53:03;5.25;;;2.22;;
75139;SDS011;63714;55.812;37.658;2023-02-11T05:55:30;3.50;;;1.40;;
75139;SDS011;63714;55.812;37.658;2023-02-11T05:57:55;3.25;;;1.30;;
75139;SDS011;63714;55.812;37.658;2023-02-11T06:00:21;5.07;;;1.65;;
75139;SDS011;63714;55.812;37.658;2023-02-11T06:02:47;5.93;;;1.65;;
75139;SDS011;63714;55.812;37.658;2023-02-11T06:05:13;4.88;;;1.65;;
75139;SDS011;63714;55.812;37.658;2023-02-11T06:07:38;3.55;;;1.27;;
75139;SDS011;63714;55.812;37.658;2023-02-11T06:10:04;4.05;;;1.80;;
75139;SDS011;63714;55.812;37.658;2023-02-11T06:12:30;4.03;;;1.40;;
75139;SDS011;63714;55.812;37.658;2023-02-11T06:14:56;4.13;;;1.33;;
75139;SDS011;63714;55.812;37.658;2023-02-11T06:17:21;4.43;;;1.17;;
75139;SDS011;63714;55.812;37.658;2023-02-11T06:19:47;7.05;;;1.80;;
75139;SDS011;63714;55.812;37.658;2023-02-11T06:22:13;5.03;;;2.35;;
75139;SDS011;63714;55.812;37.658;2023-02-11T06:24:39;5.85;;;2.25;;
75139;SDS011;63714;55.812;37.658;2023-02-11T06:27:05;5.60;;;1.80;;
75139;SDS011;63714;55.812;37.658;2023-02-11T06:29:30;4.22;;;1.80;;
75139;SDS011;63714;55.812;37.658;2023-02-11T06:31:56;5.43;;;1.58;;
75139;SDS011;63714;55.812;37.658;2023-02-11T06:34:22;5.88;;;2.17;;
75139;SDS011;63714;55.812;37.658;2023-02-11T06:36:47;6.47;;;2.30;;
75139;SDS011;63714;55.812;37.658;2023-02-11T06:39:13;6.35;;;2.33;;
75139;SDS011;63714;55.812;37.658;2023-02-11T06:41:38;7.25;;;1.95;;
75139;SDS011;63714;55.812;37.658;2023-02-11T06:44:04;5.95;;;2.05;;
75139;SDS011;63714;55.812;37.658;2023-02-11T06:46:30;5.75;;;2.28;;
75139;SDS011;63714;55.812;37.658;2023-02-11T06:48:56;5.55;;;1.95;;
75139;SDS011;63714;55.812;37.658;2023-02-11T06:51:22;5.43;;;1.70;;
75139;SDS011;63714;55.812;37.658;2023-02-11T06:53:48;7.80;;;2.92;;
75139;SDS011;63714;55.812;37.658;2023-02-11T06:56:17;9.57;;;2.63;;
75139;SDS011;63714;55.812;37.658;2023-02-11T06:58:44;10.35;;;2.80;;
75139;SDS011;63714;55.812;37.658;2023-02-11T07:01:11;8.32;;;2.42;;
75139;SDS011;63714;55.812;37.658;2023-02-11T07:03:39;5.63;;;2.10;;
75139;SDS011;63714;55.812;37.658;2023-02-11T07:06:07;4.70;;;1.80;;
75139;SDS011;63714;55.812;37.658;2023-02-11T07:08:36;5.70;;;2.33;;
75139;SDS011;63714;55.812;37.658;2023-02-11T07:11:09;9.02;;;3.63;;
75139;SDS011;63714;55.812;37.658;2023-02-11T07:13:39;9.00;;;2.95;;
75139;SDS011;63714;55.812;37.658;2023-02-11T07:16:05;7.38;;;3.58;;
75139;SDS011;63714;55.812;37.658;2023-02-11T07:18:33;6.03;;;2.72;;
75139;SDS011;63714;55.812;37.658;2023-02-11T07:20:59;5.80;;;2.45;;
75139;SDS011;63714;55.812;37.658;2023-02-11T07:23:28;6.07;;;2.55;;
75139;SDS011;63714;55.812;37.658;2023-02-11T07:25:54;5.60;;;2.70;;
75139;SDS011;63714;55.812;37.658;2023-02-11T07:28:20;7.13;;;2.90;;
75139;SDS011;63714;55.812;37.658;2023-02-11T07:30:45;9.27;;;3.33;;
75139;SDS011;63714;55.812;37.658;2023-02-11T07:33:11;10.25;;;3.63;;
75139;SDS011;63714;55.812;37.658;2023-02-11T07:35:37;5.93;;;2.83;;
75139;SDS011;63714;55.812;37.658;2023-02-11T07:38:02;6.43;;;2.97;;
75139;SDS011;63714;55.812;37.658;2023-02-11T07:40:28;7.10;;;2.78;;
75139;SDS011;63714;55.812;37.658;2023-02-11T07:42:56;9.77;;;3.53;;
75139;SDS011;63714;55.812;37.658;2023-02-11T07:45:21;7.65;;;3.17;;
75139;SDS011;63714;55.812;37.658;2023-02-11T07:47:49;7.35;;;3.00;;
75139;SDS011;63714;55.812;37.658;2023-02-11T07:50:15;6.68;;;3.40;;
75139;SDS011;63714;55.812;37.658;2023-02-11T07:52:41;8.45;;;3.63;;
75139;SDS011;63714;55.812;37.658;2023-02-11T07:55:07;6.63;;;3.22;;
75139;SDS011;63714;55.812;37.658;2023-02-11T07:57:34;9.15;;;3.67;;
75139;SDS011;63714;55.812;37.658;2023-02-11T08:00:00;8.15;;;3.70;;
75139;SDS011;63714;55.812;37.658;2023-02-11T08:02:26;7.18;;;3.72;;
75139;SDS011;63714;55.812;37.658;2023-02-11T08:04:52;7.50;;;3.45;;
75139;SDS011;63714;55.812;37.658;2023-02-11T08:07:17;7.82;;;3.10;;
75139;SDS011;63714;55.812;37.658;2023-02-11T08:09:43;12.15;;;5.25;;
75139;SDS011;63714;55.812;37.658;2023-02-11T08:12:09;8.73;;;4.10;;
75139;SDS011;63714;55.812;37.658;2023-02-11T08:14:35;10.68;;;4.43;;
75139;SDS011;63714;55.812;37.658;2023-02-11T08:17:01;7.22;;;3.20;;
75139;SDS011;63714;55.812;37.658;2023-02-11T08:19:27;8.85;;;3.90;;
75139;SDS011;63714;55.812;37.658;2023-02-11T08:21:56;7.60;;;3.65;;
75139;SDS011;63714;55.812;37.658;2023-02-11T08:24:25;9.70;;;3.75;;
75139;SDS011;63714;55.812;37.658;2023-02-11T08:26:50;10.60;;;3.90;;
75139;SDS011;63714;55.812;37.658;2023-02-11T08:29:16;8.55;;;3.97;;
75139;SDS011;63714;55.812;37.658;2023-02-11T08:31:42;7.22;;;4.00;;
75139;SDS011;63714;55.812;37.658;2023-02-11T08:34:11;10.25;;;4.40;;
75139;SDS011;63714;55.812;37.658;2023-02-11T08:36:38;9.32;;;3.33;;
75139;SDS011;63714;55.812;37.658;2023-02-11T08:39:06;12.27;;;4.30;;
75139;SDS011;63714;55.812;37.658;2023-02-11T08:41:36;10.05;;;4.40;;
75139;SDS011;63714;55.812;37.658;2023-02-11T08:44:02;8.25;;;4.05;;
75139;SDS011;63714;55.812;37.658;2023-02-11T08:46:27;7.47;;;3.85;;
75139;SDS011;63714;55.812;37.658;2023-02-11T08:48:54;10.23;;;3.95;;
75139;SDS011;63714;55.812;37.658;2023-02-11T08:51:24;11.55;;;4.78;;
75139;SDS011;63714;55.812;37.658;2023-02-11T08:53:52;9.02;;;5.07;;
75139;SDS011;63714;55.812;37.658;2023-02-11T08:56:18;15.07;;;5.00;;
75139;SDS011;63714;55.812;37.658;2023-02-11T08:58:45;13.68;;;5.85;;
75139;SDS011;63714;55.812;37.658;2023-02-11T09:01:12;11.05;;;4.38;;
75139;SDS011;63714;55.812;37.658;2023-02-11T09:03:49;11.55;;;4.57;;
75139;SDS011;63714;55.812;37.658;2023-02-11T09:06:16;9.82;;;3.80;;
75139;SDS011;63714;55.812;37.658;2023-02-11T09:08:44;8.10;;;4.70;;
75139;SDS011;63714;55.812;37.658;2023-02-11T09:11:11;11.93;;;5.22;;
75139;SDS011;63714;55.812;37.658;2023-02-11T09:13:39;15.65;;;5.85;;
75139;SDS011;63714;55.812;37.658;2023-02-11T09:16:06;17.10;;;6.03;;
75139;SDS011;63714;55.812;37.658;2023-02-11T09:18:32;13.63;;;5.47;;
75139;SDS011;63714;55.812;37.658;2023-02-11T09:21:05;10.90;;;5.18;;
75139;SDS011;63714;55.812;37.658;2023-02-11T09:23:32;17.02;;;6.57;;
75139;SDS011;63714;55.812;37.658;2023-02-11T09:26:09;19.27;;;7.90;;
75139;SDS011;63714;55.812;37.658;2023-02-11T09:28:37;11.63;;;4.65;;
75139;SDS011;63714;55.812;37.658;2023-02-11T09:31:04;16.90;;;6.65;;
75139;SDS011;63714;55.812;37.658;2023-02-11T09:33:33;14.15;;;5.32;;
75139;SDS011;63714;55.812;37.658;2023-02-11T09:36:00;9.98;;;4.40;;
75139;SDS011;63714;55.812;37.658;2023-02-11T09:38:27;18.63;;;6.72;;
75139;SDS011;63714;55.812;37.658;2023-02-11T09:40:52;9.80;;;4.05;;
75139;SDS011;63714;55.812;37.658;2023-02-11T09:43:19;7.68;;;3.72;;
75139;SDS011;63714;55.812;37.658;2023-02-11T09:45:47;10.45;;;4.03;;
75139;SDS011;63714;55.812;37.658;2023-02-11T09:48:16;13.60;;;4.75;;
75139;SDS011;63714;55.812;37.658;2023-02-11T09:51:02;12.13;;;5.97;;
75139;SDS011;63714;55.812;37.658;2023-02-11T09:53:30;9.82;;;4.20;;
75139;SDS011;63714;55.812;37.658;2023-02-11T09:56:00;11.85;;;4.70;;
75139;SDS011;63714;55.812;37.658;2023-02-11T09:58:34;14.10;;;5.25;;
75139;SDS011;63714;55.812;37.658;2023-02-11T10:06:46;10.02;;;4.75;;
75139;SDS011;63714;55.812;37.658;2023-02-11T10:17:14;5.32;;;3.17;;
75139;SDS011;63714;55.812;37.658;2023-02-11T10:22:57;8.93;;;3.25;;
75139;SDS011;63714;55.812;37.658;2023-02-11T10:25:27;16.70;;;6.60;;
75139;SDS011;63714;55.812;37.658;2023-02-11T10:27:59;9.63;;;3.45;;
75139;SDS011;63714;55.812;37.658;2023-02-11T10:30:33;14.50;;;4.93;;
75139;SDS011;63714;55.812;37.658;2023-02-11T10:33:06;13.02;;;4.65;;
75139;SDS011;63714;55.812;37.658;2023-02-11T10:35:54;10.57;;;4.15;;
75139;SDS011;63714;55.812;37.658;2023-02-11T10:38:19;15.25;;;6.68;;
75139;SDS011;63714;55.812;37.658;2023-02-11T10:40:45;21.15;;;8.13;;
75139;SDS011;63714;55.812;37.658;2023-02-11T10:43:15;20.88;;;8.13;;
75139;SDS011;63714;55.812;37.658;2023-02-11T10:45:43;18.17;;;6.63;;
75139;SDS011;63714;55.812;37.658;2023-02-11T10:51:16;12.70;;;4.78;;
75139;SDS011;63714;55.812;37.658;2023-02-11T10:56:46;17.25;;;6.93;;
75139;SDS011;63714;55.812;37.658;2023-02-11T10:59:28;19.52;;;8.63;;
75139;SDS011;63714;55.812;37.658;2023-02-11T11:01:58;18.58;;;6.93;;
75139;SDS011;63714;55.812;37.658;2023-02-11T11:04:31;7.30;;;4.03;;
75139;SDS011;63714;55.812;37.658;2023-02-11T11:12:35;13.60;;;5.93;;
75139;SDS011;63714;55.812;37.658;2023-02-11T11:17:35;12.73;;;5.30;;
75139;SDS011;63714;55.812;37.658;2023-02-11T11:22:53;15.00;;;6.28;;
75139;SDS011;63714;55.812;37.658;2023-02-11T11:28:32;15.10;;;6.40;;
75139;SDS011;63714;55.812;37.658;2023-02-11T11:31:14;15.38;;;6.20;;
75139;SDS011;63714;55.812;37.658;2023-02-11T11:33:43;22.35;;;9.90;;
75139;SDS011;63714;55.812;37.658;2023-02-11T11:36:15;16.48;;;7.78;;
75139;SDS011;63714;55.812;37.658;2023-02-11T11:38:49;20.23;;;7.78;;
75139;SDS011;63714;55.812;37.658;2023-02-11T11:41:28;18.02;;;8.15;;
75139;SDS011;63714;55.812;37.658;2023-02-11T11:44:00;18.23;;;7.32;;
75139;SDS011;63714;55.812;37.658;2023-02-11T11:46:30;24.83;;;10.20;;
75139;SDS011;63714;55.812;37.658;2023-02-11T11:51:44;16.08;;;7.20;;
75139;SDS011;63714;55.812;37.658;2023-02-11T11:54:16;13.38;;;5.68;;
75139;SDS011;63714;55.812;37.658;2023-02-11T11:56:56;15.85;;;7.50;;
75139;SDS011;63714;55.812;37.658;2023-02-11T11:59:27;13.10;;;6.38;;
75139;SDS011;63714;55.812;37.658;2023-02-11T12:10:14;7.68;;;4.30;;
75139;SDS011;63714;55.812;37.658;2023-02-11T12:24:00;13.43;;;6.78;;
75139;SDS011;63714;55.812;37.658;2023-02-11T12:26:51;17.00;;;8.00;;
75139;SDS011;63714;55.812;37.658;2023-02-11T12:40:12;17.63;;;7.95;;
75139;SDS011;63714;55.812;37.658;2023-02-11T12:42:49;17.77;;;6.70;;
75139;SDS011;63714;55.812;37.658;2023-02-11T12:56:25;20.17;;;7.47;;
75139;SDS011;63714;55.812;37.658;2023-02-11T12:58:59;16.63;;;7.60;;
75139;SDS011;63714;55.812;37.658;2023-02-11T13:01:29;16.55;;;6.28;;
75139;SDS011;63714;55.812;37.658;2023-02-11T13:04:04;23.63;;;9.80;;
75139;SDS011;63714;55.812;37.658;2023-02-11T13:06:37;19.48;;;7.57;;
75139;SDS011;63714;55.812;37.658;2023-02-11T13:09:16;22.25;;;7.35;;
75139;SDS011;63714;55.812;37.658;2023-02-11T13:11:48;16.58;;;5.88;;
75139;SDS011;63714;55.812;37.658;2023-02-11T13:14:21;13.32;;;4.80;;
75139;SDS011;63714;55.812;37.658;2023-02-11T13:16:52;13.05;;;5.72;;
75139;SDS011;63714;55.812;37.658;2023-02-11T13:35:38;10.80;;;4.90;;
75139;SDS011;63714;55.812;37.658;2023-02-11T13:38:05;7.10;;;3.85;;
75139;SDS011;63714;55.812;37.658;2023-02-11T13:40:44;19.10;;;7.38;;
75139;SDS011;63714;55.812;37.658;2023-02-11T13:43:34;23.83;;;8.57;;
75139;SDS011;63714;55.812;37.658;2023-02-11T13:46:07;16.52;;;7.13;;
75139;SDS011;63714;55.812;37.658;2023-02-11T13:48:40;19.23;;;7.10;;
75139;SDS011;63714;55.812;37.658;2023-02-11T13:51:12;16.33;;;6.72;;
75139;SDS011;63714;55.812;37.658;2023-02-11T13:56:32;16.15;;;5.72;;
75139;SDS011;63714;55.812;37.658;2023-02-11T13:59:00;13.77;;;4.82;;
75139;SDS011;63714;55.812;37.658;2023-02-11T14:04:31;16.02;;;5.88;;
75139;SDS011;63714;55.812;37.658;2023-02-11T14:08:17;8.68;;;4.20;;
75139;SDS011;63714;55.812;37.658;2023-02-11T14:10:47;10.85;;;4.43;;
75139;SDS011;63714;55.812;37.658;2023-02-11T14:16:03;12.30;;;5.00;;
75139;SDS011;63714;55.812;37.658;2023-02-11T14:18:43;13.02;;;5.15;;
75139;SDS011;63714;55.812;37.658;2023-02-11T14:23:53;12.48;;;4.80;;
75139;SDS011;63714;55.812;37.658;2023-02-11T14:29:17;16.38;;;5.88;;
75139;SDS011;63714;55.812;37.658;2023-02-11T14:34:30;15.70;;;6.03;;
75139;SDS011;63714;55.812;37.658;2023-02-11T14:40:17;14.90;;;5.03;;
75139;SDS011;63714;55.812;37.658;2023-02-11T14:43:06;13.68;;;4.53;;
75139;SDS011;63714;55.812;37.658;2023-02-11T14:45:37;14.32;;;5.45;;
75139;SDS011;63714;55.812;37.658;2023-02-11T14:48:12;13.35;;;5.13;;
75139;SDS011;63714;55.812;37.658;2023-02-11T14:53:31;15.50;;;5.85;;
75139;SDS011;63714;55.812;37.658;2023-02-11T14:55:58;11.82;;;5.85;;
75139;SDS011;63714;55.812;37.658;2023-02-11T15:00:51;15.50;;;5.25;;
75139;SDS011;63714;55.812;37.658;2023-02-11T15:03:24;17.55;;;6.05;;
75139;SDS011;63714;55.812;37.658;2023-02-11T15:08:41;18.02;;;5.85;;
75139;SDS011;63714;55.812;37.658;2023-02-11T15:11:11;14.05;;;5.93;;
75139;SDS011;63714;55.812;37.658;2023-02-11T15:13:39;18.10;;;6.10;;
75139;SDS011;63714;55.812;37.658;2023-02-11T15:16:11;16.23;;;5.60;;
75139;SDS011;63714;55.812;37.658;2023-02-11T15:18:43;13.55;;;5.63;;
75139;SDS011;63714;55.812;37.658;2023-02-11T15:21:12;17.45;;;5.68;;
75139;SDS011;63714;55.812;37.658;2023-02-11T15:23:53;16.83;;;5.95;;
75139;SDS011;63714;55.812;37.658;2023-02-11T15:26:27;18.95;;;6.93;;
75139;SDS011;63714;55.812;37.658;2023-02-11T15:28:53;16.30;;;5.97;;
75139;SDS011;63714;55.812;37.658;2023-02-11T15:31:21;14.90;;;5.35;;
75139;SDS011;63714;55.812;37.658;2023-02-11T15:33:49;17.58;;;6.22;;
75139;SDS011;63714;55.812;37.658;2023-02-11T15:36:15;13.80;;;5.15;;
75139;SDS011;63714;55.812;37.658;2023-02-11T15:38:43;15.82;;;6.07;;
75139;SDS011;63714;55.812;37.658;2023-02-11T15:41:34;14.68;;;5.45;;
75139;SDS011;63714;55.812;37.658;2023-02-11T15:44:01;13.77;;;6.55;;
75139;SDS011;63714;55.812;37.658;2023-02-11T15:46:30;15.52;;;5.63;;
75139;SDS011;63714;55.812;37.658;2023-02-11T15:49:02;19.60;;;6.00;;
75139;SDS011;63714;55.812;37.658;2023-02-11T15:51:30;9.30;;;4.45;;
75139;SDS011;63714;55.812;37.658;2023-02-11T15:54:03;14.27;;;5.88;;
75139;SDS011;63714;55.812;37.658;2023-02-11T15:56:37;15.52;;;5.38;;
75139;SDS011;63714;55.812;37.658;2023-02-11T15:59:15;20.05;;;6.50;;
75139;SDS011;63714;55.812;37.658;2023-02-11T16:01:44;18.40;;;6.38;;
75139;SDS011;63714;55.812;37.658;2023-02-11T16:04:18;14.07;;;6.15;;
75139;SDS011;63714;55.812;37.658;2023-02-11T16:06:47;19.65;;;4.82;;
75139;SDS011;63714;55.812;37.658;2023-02-11T16:14:22;12.13;;;5.68;;
75139;SDS011;63714;55.812;37.658;2023-02-11T16:17:20;14.55;;;5.15;;
75139;SDS011;63714;55.812;37.658;2023-02-11T16:19:48;21.48;;;5.55;;
75139;SDS011;63714;55.812;37.658;2023-02-11T16:22:21;14.73;;;5.28;;
75139;SDS011;63714;55.812;37.658;2023-02-11T16:24:55;11.52;;;5.38;;
75139;SDS011;63714;55.812;37.658;2023-02-11T16:27:24;14.60;;;5.30;;
75139;SDS011;63714;55.812;37.658;2023-02-11T16:29:52;14.93;;;5.43;;
75139;SDS011;63714;55.812;37.658;2023-02-11T16:32:19;10.70;;;4.60;;
75139;SDS011;63714;55.812;37.658;2023-02-11T16:34:49;13.77;;;5.25;;
75139;SDS011;63714;55.812;37.658;2023-02-11T16:37:16;17.95;;;5.50;;
75139;SDS011;63714;55.812;37.658;2023-02-11T16:39:42;13.70;;;4.55;;
75139;SDS011;63714;55.812;37.658;2023-02-11T16:42:08;14.27;;;4.47;;
75139;SDS011;63714;55.812;37.658;2023-02-11T16:44:35;12.55;;;4.80;;
75139;SDS011;63714;55.812;37.658;2023-02-11T16:47:01;11.48;;;5.30;;
75139;SDS011;63714;55.812;37.658;2023-02-11T16:49:35;8.30;;;3.33;;
75139;SDS011;63714;55.812;37.658;2023-02-11T16:52:05;11.30;;;4.07;;
75139;SDS011;63714;55.812;37.658;2023-02-11T16:54:33;12.30;;;5.28;;
75139;SDS011;63714;55.812;37.658;2023-02-11T16:56:59;11.65;;;5.07;;
75139;SDS011;63714;55.812;37.658;2023-02-11T16:59:26;14.27;;;5.60;;
75139;SDS011;63714;55.812;37.658;2023-02-11T17:01:52;17.08;;;6.68;;
75139;SDS011;63714;55.812;37.658;2023-02-11T17:04:28;12.07;;;4.13;;
75139;SDS011;63714;55.812;37.658;2023-02-11T17:06:55;13.65;;;5.10;;
75139;SDS011;63714;55.812;37.658;2023-02-11T17:09:22;12.45;;;5.45;;
75139;SDS011;63714;55.812;37.658;2023-02-11T17:11:49;14.18;;;4.88;;
75139;SDS011;63714;55.812;37.658;2023-02-11T17:14:16;8.68;;;3.65;;
75139;SDS011;63714;55.812;37.658;2023-02-11T17:16:42;11.82;;;4.30;;
75139;SDS011;63714;55.812;37.658;2023-02-11T17:19:10;10.13;;;4.18;;
75139;SDS011;63714;55.812;37.658;2023-02-11T17:21:39;13.25;;;3.95;;
75139;SDS011;63714;55.812;37.658;2023-02-11T17:24:09;11.10;;;5.13;;
75139;SDS011;63714;55.812;37.658;2023-02-11T17:26:36;10.50;;;4.25;;
75139;SDS011;63714;55.812;37.658;2023-02-11T17:29:09;13.82;;;5.68;;
75139;SDS011;63714;55.812;37.658;2023-02-11T17:31:38;11.23;;;4.57;;